Skip Navigation Links
NOAA logo - Click to go to the NOAA homepage
NOAA's National Weather Service
Alaska Aviation Weather Unit
  NWS logo - Click to go to the NWS homepage
Left Navbar Graphic     22 AKDT = 06 GMT

   
NOAA is celebrating 200 years of science, service, and stewardship. Visit the NOAA 200th celebration Web site to learn more.
USA.gov is the U.S. Government's official Web portal to all Federal, state and local government Web resources and services.
Facebook
NWS on Facebook

Important Change Regarding the AAWU Web Presence

 

Over the last several months, the AAWU has been working to navigate its webpages to a nationally supported server. Security, as well as other needs, have necessitated the change.  We have been given an extension for the site changeover while we diligently work at addressing feedback received. As of July 14, 2017, aawu.arh.noaa.gov will be discontinued. The new AAWU web address is weather.gov/aawu. It is now live and will run in-parallel with the old site until it is discontinued on July 14, 2017. Please continue to send any feedback or questions regarding the new webpages to nws.ar.aawu.webauthors@noaa.gov.  Thank you for your patience during this time of transition.
AAWU Home :: Display TAF Add Bookmark
TAF CZFA 251923Z 2519/2601 31005KT P6SM SCT060 BKN100 TEMPO
     2519/2601 P6SM VCTS BKN060CB
    RMK NXT FCST WILL BE ISSUED AT 261445Z=

METAR CZFA 260000Z 25005KT 30SM FEW060TCU SCT090 BKN130 BKN220 20/11 A2985 RMK TCU2AC1AC2CI2 SLP118 DENSITY ALT 3600FT= METAR CZFA 260100Z 33006KT 290V350 30SM FEW055 FEW090 SCT130 BKN240 21/11 A2983 RMK CU1AC1AC2CI3 CLIMAT 23.1/14.1/1.0MM LAST STFD OBS/NXT 261300Z SLP109 DENSITY ALT 3800FT=
 Alaska TAF Map

NOAA's National Weather Service
Alaska Aviation Weather Unit
6930 Sand Lake Road
Anchorage, AK 99502-1845
Disclaimer
Credits
Glossary
Privacy Policy
About Us
Career Opportunities
Contact AAWU Internet Services Site last modified: April, 17th 2012